Time,TemperatureF,DewpointF,PressureIn,WindDirection,WindDirectionDegrees,WindSpeedMPH,WindSpeedGustMPH,Humidity,HourlyPrecipIn,Conditions,Clouds,dailyrainin,SolarRadiationWatts/m^2,SoftwareType,DateUTC
2013-04-05 00:12:00,37.0,36.0,-100.00,NNE,20,0.0,8.0,95,0.01,,,0.01,0.000000,,2013-04-05 06:12:00,
2013-04-05 01:12:00,35.0,34.0,-100.00,NNW,337,1.0,3.0,97,-99.99,,,0.01,0.000000,,2013-04-05 07:12:00,
2013-04-05 01:22:00,35.0,34.0,-100.00,NNW,337,1.0,3.0,97,-99.99,,,0.01,0.000000,,2013-04-05 07:22:00,
2013-04-05 02:12:00,38.0,37.0,-100.00,SSW,207,0.0,7.0,98,-99.99,,,0.01,0.000000,,2013-04-05 08:12:00,
2013-04-05 02:22:00,38.0,37.0,-100.00,SSW,207,0.0,7.0,98,-99.99,,,0.01,0.000000,,2013-04-05 08:22:00,
2013-04-05 02:32:00,38.0,37.0,-100.00,SSW,207,0.0,7.0,98,-99.99,,,0.01,0.000000,,2013-04-05 08:32:00,
2013-04-05 02:42:00,38.0,37.0,-100.00,SSW,207,0.0,7.0,98,-99.99,,,0.01,0.000000,,2013-04-05 08:42:00,
2013-04-05 03:12:00,38.0,37.0,-100.00,ESE,109,0.0,5.0,97,0.05,,,0.06,0.000000,,2013-04-05 09:12:00,
2013-04-05 03:22:00,38.0,37.0,-100.00,ESE,109,0.0,5.0,97,0.05,,,0.06,0.000000,,2013-04-05 09:22:00,
2013-04-05 03:32:00,38.0,37.0,-100.00,ESE,109,0.0,5.0,97,0.05,,,0.06,0.000000,,2013-04-05 09:32:00,
2013-04-05 03:42:00,38.0,37.0,-100.00,ESE,109,0.0,5.0,97,0.05,,,0.06,0.000000,,2013-04-05 09:42:00,
2013-04-05 04:12:00,36.0,35.0,-100.00,ESE,119,0.0,2.0,98,0.07,,,0.13,0.000000,,2013-04-05 10:12:00,
2013-04-05 04:23:00,36.0,35.0,-100.00,ESE,119,0.0,2.0,98,0.07,,,0.13,0.000000,,2013-04-05 10:23:00,
2013-04-05 04:32:00,36.0,35.0,-100.00,ESE,119,0.0,2.0,98,0.07,,,0.13,0.000000,,2013-04-05 10:32:00,
2013-04-05 04:42:00,36.0,35.0,-100.00,ESE,119,0.0,2.0,98,0.07,,,0.13,0.000000,,2013-04-05 10:42:00,
2013-04-05 05:12:00,38.0,38.0,-100.00,South,171,4.0,10.0,99,0.13,,,0.26,0.000000,,2013-04-05 11:12:00,
2013-04-05 05:22:00,38.0,38.0,-100.00,South,171,4.0,10.0,99,0.13,,,0.26,0.000000,,2013-04-05 11:22:00,
2013-04-05 05:32:00,38.0,38.0,-100.00,South,171,4.0,10.0,99,0.13,,,0.26,0.000000,,2013-04-05 11:32:00,
2013-04-05 05:42:00,38.0,38.0,-100.00,South,171,4.0,10.0,99,0.13,,,0.26,0.000000,,2013-04-05 11:42:00,
2013-04-05 06:12:00,36.0,36.0,-100.00,SSE,165,3.0,8.0,99,0.01,,,0.27,0.000000,,2013-04-05 12:12:00,
2013-04-05 06:22:00,36.0,36.0,-100.00,SSE,165,3.0,8.0,99,0.01,,,0.27,0.000000,,2013-04-05 12:22:00,
2013-04-05 06:32:00,36.0,36.0,-100.00,SSE,165,3.0,8.0,99,0.01,,,0.27,0.000000,,2013-04-05 12:32:00,
2013-04-05 06:42:00,36.0,36.0,-100.00,SSE,165,3.0,8.0,99,0.01,,,0.27,0.000000,,2013-04-05 12:42:00,
2013-04-05 07:12:00,36.0,36.0,-100.00,South,179,1.0,7.0,99,0.04,,,0.31,0.000000,,2013-04-05 13:12:00,
2013-04-05 07:22:00,36.0,36.0,-100.00,South,179,1.0,7.0,99,0.04,,,0.31,0.000000,,2013-04-05 13:22:00,
2013-04-05 07:32:00,36.0,36.0,-100.00,South,179,1.0,7.0,99,0.04,,,0.31,0.000000,,2013-04-05 13:32:00,
2013-04-05 07:42:00,36.0,36.0,-100.00,South,179,1.0,7.0,99,0.04,,,0.31,0.000000,,2013-04-05 13:42:00,
2013-04-05 08:12:00,36.0,36.0,-100.00,WNW,293,0.0,5.0,99,0.00,,,0.31,5.000000,,2013-04-05 14:12:00,
2013-04-05 08:22:00,36.0,36.0,-100.00,WNW,293,0.0,5.0,99,0.00,,,0.31,5.000000,,2013-04-05 14:22:00,
2013-04-05 08:36:00,36.0,36.0,-100.00,WNW,293,0.0,5.0,99,0.00,,,0.31,5.000000,,2013-04-05 14:36:00,
2013-04-05 08:42:00,36.0,36.0,-100.00,WNW,293,0.0,5.0,99,0.00,,,0.31,5.000000,,2013-04-05 14:42:00,
2013-04-05 09:12:00,36.0,36.0,-100.00,NNE,26,0.0,2.0,99,0.02,,,0.33,19.000000,,2013-04-05 15:12:00,
2013-04-05 09:23:00,36.0,36.0,-100.00,NNE,26,0.0,2.0,99,0.02,,,0.33,19.000000,,2013-04-05 15:23:00,
2013-04-05 09:33:00,36.0,36.0,-100.00,NNE,26,0.0,2.0,99,0.02,,,0.33,19.000000,,2013-04-05 15:33:00,
2013-04-05 09:42:00,36.0,36.0,-100.00,NNE,26,0.0,2.0,99,0.02,,,0.33,19.000000,,2013-04-05 15:42:00,
2013-04-05 10:13:00,36.0,36.0,-100.00,NNW,345,0.0,2.0,99,0.04,,,0.37,31.000000,,2013-04-05 16:13:00,
2013-04-05 10:23:00,36.0,36.0,-100.00,NNW,345,0.0,2.0,99,0.04,,,0.37,31.000000,,2013-04-05 16:23:00,
2013-04-05 10:32:00,36.0,36.0,-100.00,NNW,345,0.0,2.0,99,0.04,,,0.37,31.000000,,2013-04-05 16:32:00,
2013-04-05 10:42:00,36.0,36.0,-100.00,NNW,345,0.0,2.0,99,0.04,,,0.37,31.000000,,2013-04-05 16:42:00,
2013-04-05 11:12:00,42.0,39.0,-100.00,SSW,197,2.0,6.0,90,0.00,,,0.37,163.000000,,2013-04-05 17:12:00,
2013-04-05 11:22:00,42.0,39.0,-100.00,SSW,197,2.0,6.0,90,0.00,,,0.37,163.000000,,2013-04-05 17:22:00,
2013-04-05 11:32:00,42.0,39.0,-100.00,SSW,197,2.0,6.0,90,0.00,,,0.37,163.000000,,2013-04-05 17:32:00,
2013-04-05 11:44:00,42.0,39.0,-100.00,SSW,197,2.0,6.0,90,0.00,,,0.37,163.000000,,2013-04-05 17:44:00,
2013-04-05 12:12:00,46.0,36.0,-100.00,SW,221,6.0,17.0,67,0.00,,,0.37,439.000000,,2013-04-05 18:12:00,
2013-04-05 12:22:00,46.0,36.0,-100.00,SW,221,6.0,17.0,67,0.00,,,0.37,439.000000,,2013-04-05 18:22:00,
2013-04-05 12:32:00,46.0,36.0,-100.00,SW,221,6.0,17.0,67,0.00,,,0.37,439.000000,,2013-04-05 18:32:00,
2013-04-05 12:42:00,46.0,36.0,-100.00,SW,221,6.0,17.0,67,0.00,,,0.37,439.000000,,2013-04-05 18:42:00,
2013-04-05 13:13:00,45.0,33.0,-100.00,SSW,197,7.0,23.0,62,0.00,,,0.37,539.000000,,2013-04-05 19:13:00,
2013-04-05 13:22:00,45.0,33.0,-100.00,SSW,197,7.0,23.0,62,0.00,,,0.37,539.000000,,2013-04-05 19:22:00,
2013-04-05 13:32:00,45.0,33.0,-100.00,SSW,197,7.0,23.0,62,0.00,,,0.37,539.000000,,2013-04-05 19:32:00,
2013-04-05 13:42:00,45.0,33.0,-100.00,SSW,197,7.0,23.0,62,0.00,,,0.37,539.000000,,2013-04-05 19:42:00,
2013-04-05 14:11:00,45.0,34.0,-100.00,WSW,252,7.0,19.0,64,0.00,,,0.37,399.000000,,2013-04-05 20:11:00,
2013-04-05 14:22:00,45.0,34.0,-100.00,WSW,252,7.0,19.0,64,0.00,,,0.37,399.000000,,2013-04-05 20:22:00,
2013-04-05 14:31:00,45.0,34.0,-100.00,WSW,252,7.0,19.0,64,0.00,,,0.37,399.000000,,2013-04-05 20:31:00,
2013-04-05 14:42:00,45.0,34.0,-100.00,WSW,252,7.0,19.0,64,0.00,,,0.37,399.000000,,2013-04-05 20:42:00,
2013-04-05 15:12:00,34.0,32.0,-100.00,WSW,241,3.0,12.0,93,0.04,,,0.41,179.000000,,2013-04-05 21:12:00,
2013-04-05 15:23:00,34.0,32.0,-100.00,WSW,241,3.0,12.0,93,0.04,,,0.41,179.000000,,2013-04-05 21:23:00,
2013-04-05 15:33:00,34.0,32.0,-100.00,WSW,241,3.0,12.0,93,0.04,,,0.41,179.000000,,2013-04-05 21:33:00,
2013-04-05 15:42:00,34.0,32.0,-100.00,WSW,241,3.0,12.0,93,0.04,,,0.41,179.000000,,2013-04-05 21:42:00,
2013-04-05 16:13:00,37.0,35.0,-100.00,SSW,210,3.0,8.0,91,0.07,,,0.48,164.000000,,2013-04-05 22:13:00,
2013-04-05 16:22:00,37.0,35.0,-100.00,SSW,210,3.0,8.0,91,0.07,,,0.48,164.000000,,2013-04-05 22:22:00,
2013-04-05 16:32:00,37.0,35.0,-100.00,SSW,210,3.0,8.0,91,0.07,,,0.48,164.000000,,2013-04-05 22:32:00,
2013-04-05 16:42:00,37.0,35.0,-100.00,SSW,210,3.0,8.0,91,0.07,,,0.48,164.000000,,2013-04-05 22:42:00,
2013-04-05 17:12:00,43.0,37.0,-100.00,SW,222,3.0,7.0,78,0.00,,,0.48,329.000000,,2013-04-05 23:12:00,
2013-04-05 17:22:00,43.0,37.0,-100.00,SW,222,3.0,7.0,78,0.00,,,0.48,329.000000,,2013-04-05 23:22:00,
2013-04-05 17:32:00,43.0,37.0,-100.00,SW,222,3.0,7.0,78,0.00,,,0.48,329.000000,,2013-04-05 23:32:00,
2013-04-05 17:42:00,43.0,37.0,-100.00,SW,222,3.0,7.0,78,0.00,,,0.48,329.000000,,2013-04-05 23:42:00,
2013-04-05 18:12:00,41.0,35.0,-100.00,WNW,298,1.0,6.0,79,0.00,,,0.48,165.000000,,2013-04-06 00:12:00,
2013-04-05 18:22:00,41.0,35.0,-100.00,WNW,298,1.0,6.0,79,0.00,,,0.48,165.000000,,2013-04-06 00:22:00,
2013-04-05 18:32:00,41.0,35.0,-100.00,WNW,298,1.0,6.0,79,0.00,,,0.48,165.000000,,2013-04-06 00:32:00,
2013-04-05 18:42:00,41.0,35.0,-100.00,WNW,298,1.0,6.0,79,0.00,,,0.48,165.000000,,2013-04-06 00:42:00,
2013-04-05 19:12:00,39.0,35.0,-100.00,WNW,299,1.0,3.0,86,0.00,,,0.48,109.000000,,2013-04-06 01:12:00,
2013-04-05 19:22:00,39.0,35.0,-100.00,WNW,299,1.0,3.0,86,0.00,,,0.48,109.000000,,2013-04-06 01:22:00,
2013-04-05 19:32:00,39.0,35.0,-100.00,WNW,299,1.0,3.0,86,0.00,,,0.48,109.000000,,2013-04-06 01:32:00,
2013-04-05 19:42:00,39.0,35.0,-100.00,WNW,299,1.0,3.0,86,0.00,,,0.48,109.000000,,2013-04-06 01:42:00,
2013-04-05 20:12:00,36.0,35.0,-100.00,SE,137,0.0,6.0,95,0.00,,,0.48,29.000000,,2013-04-06 02:12:00,
2013-04-05 20:22:00,36.0,35.0,-100.00,SE,137,0.0,6.0,95,0.00,,,0.48,29.000000,,2013-04-06 02:22:00,
2013-04-05 20:32:00,36.0,35.0,-100.00,SE,137,0.0,6.0,95,0.00,,,0.48,29.000000,,2013-04-06 02:32:00,
2013-04-05 20:42:00,36.0,35.0,-100.00,SE,137,0.0,6.0,95,0.00,,,0.48,29.000000,,2013-04-06 02:42:00,
2013-04-05 21:12:00,33.0,32.0,-100.00,North,6,0.0,1.0,97,0.00,,,0.48,1.000000,,2013-04-06 03:12:00,
2013-04-05 21:22:00,33.0,32.0,-100.00,North,6,0.0,1.0,97,0.00,,,0.48,1.000000,,2013-04-06 03:22:00,
2013-04-05 21:33:00,33.0,32.0,-100.00,North,6,0.0,1.0,97,0.00,,,0.48,1.000000,,2013-04-06 03:33:00,
2013-04-05 21:42:00,33.0,32.0,-100.00,North,6,0.0,1.0,97,0.00,,,0.48,1.000000,,2013-04-06 03:42:00,
2013-04-05 22:13:00,33.0,32.0,-100.00,South,188,1.0,3.0,98,0.00,,,-99.99,0.000000,,2013-04-06 04:13:00,
2013-04-05 22:23:00,33.0,32.0,-100.00,South,188,1.0,3.0,98,0.00,,,-99.99,0.000000,,2013-04-06 04:23:00,
2013-04-05 22:32:00,33.0,32.0,-100.00,South,188,1.0,3.0,98,0.00,,,-99.99,0.000000,,2013-04-06 04:32:00,
2013-04-05 22:42:00,33.0,32.0,-100.00,South,188,1.0,3.0,98,0.00,,,-99.99,0.000000,,2013-04-06 04:42:00,
2013-04-05 23:12:00,34.0,32.0,-100.00,North,350,1.0,5.0,93,0.00,,,0.48,0.000000,,2013-04-06 05:12:00,
2013-04-05 23:22:00,34.0,32.0,-100.00,North,350,1.0,5.0,93,0.00,,,0.48,0.000000,,2013-04-06 05:22:00,
2013-04-05 23:32:00,34.0,32.0,-100.00,North,350,1.0,5.0,93,0.00,,,0.48,0.000000,,2013-04-06 05:32:00,
2013-04-05 23:42:00,34.0,32.0,-100.00,North,350,1.0,5.0,93,0.00,,,0.48,0.000000,,2013-04-06 05:42:00,